Pagrindinis puslapis
METAR-TAF:

METAR-TAF

Oro uostai :

Latakija, Sirija

platuma: 35-32N, ilguma: 035-46E, Aukštis: 7 m

Dabartinis oras

Ataskaita buvo paskelbta 19 minutes, ne 19:00 UTC
Vėjas 5 kt iš Rytų/Šiaurės Rytų
Temperatūra 10°C
Drėgmė 76%
Slėgis 1020 hPa
Matomumas 10 km arba daugiau
Mažai debesys ne aukštis 2600 ft

METAR: OSLK 121900Z 06005KT 9999 FEW026 10/06 Q1020

Laikas: 22:19 (19:19 UTC)

Prognozė

Ataskaita buvo paskelbta 3 valandos ir 19 minutes, ne 16:00 UTC
Prognozė galioja nuo 12 metu 18 UTC su 13 metu 18 UTC
Vėjas 15 kt iš Pietų/Pietryčių
Matomumas 10 km arba daugiau
Mažai debesys ne aukštis 2600 ft, aukštai iškilę kamuoliniai debesys.
Išsisklaidę debesys ne aukštis 3000 ft
Tapsmas
nuo 13 metu 06 UTC su 13 metu 08 UTC
Vėjas 10 kt iš Vakarų/Pietvakarių
Matomumas 10 km arba daugiau
Mažai debesys ne aukštis 3000 ft
Išsisklaidę debesys ne aukštis 10000 ft

TAF: OSLK 121600Z 1218/1318 16015KT 9999 FEW026TCU SCT030 BECMG 1306/1308 24010KT 9999 FEW030 SCT100

Orai ataskaitas ir orų prognozės (METAR, TAF).

turimą stotys yra geltonos ir raudonos taškus žemėlapyje.

Perkelti pele per norėdami pamatyti stoties vardą.

Tada spustelėkite, norėdami matyti oro stebėjimo ir prognozės.

Norėdami pakeisti žemėlapį: spustelėkite ant žalios mygtukų su juodo kryžiaus žemyn,; žalią mygtuką su brūkšneliu, jei norite nutolinti; arba žalių rodyklių gretimoms žemėlapius.


METAR-TAF: